高松 の空港の天気 - METARとTAF

高松空港 ( RJOT / TAK ) - 香川県高松市
飛行場実況気象(Metar)
観測時間04/25 21:00 JST (04/25 12:00 UTC)
風向・風速南南東 3m/s
視程10km以上
天気現象
少しの雲 雲底高度 910m
全天の4割程度の雲 雲底高度 5490m
気温16℃
湿度72%
気圧1021hPa
METARRJOT 251200Z 15005KT 9999 FEW030 SCT180 BKN/// 16/11 Q1021
過去の天気等 Google飛行場航空写真 Wunderground天気予報

過去48時間のMETAR

飛行場予報(TAF)
発表時間: 4/25 20:14 JST (4/25 11:14 UTC)
予報対象時間: 25日21時 JST ~ 27日3時 JST
風向・風速南南東 3m/s
視程10km以上
少しの雲 雲底高度 910m
全天の4割程度の雲 雲底高度 1,830m
26日4時 JST ~ 26日6時 JST に徐々に
視程3,000m
天気現象弱いしゅう雨 もや 散在した霧
少しの雲 雲底高度 0m
全天の4割程度の雲 雲底高度 150m
全天の8割程度の雲 雲底高度 270m
26日6時 JST ~ 26日15時 JST に一時的に
視程900m
天気現象しゅう雨 霧
少しの雲 雲底高度 0m
全天の4割程度の雲 雲底高度 60m
全天の8割程度の雲 雲底高度 150m
26日9時 JST ~ 26日12時 JST に徐々に
風向・風速北西 3m/s
26日18時 JST ~ 26日21時 JST に徐々に
視程7,000m
天気現象運行に影響にある天気現象が終了
少しの雲 雲底高度 150m
全天の4割程度の雲 雲底高度 460m
全天の8割程度の雲 雲底高度 760m
TAF RJOT 251114Z 2512/2618 15005KT 9999 FEW030 SCT060
BECMG 2519/2521 3000 -SHRA BR BCFG FEW000 SCT005 BKN009
TEMPO 2521/2606 0900 SHRA FG FEW000 SCT002 BKN005
BECMG 2600/2603 31005KT
BECMG 2609/2612 7000 NSW FEW005 SCT015 BKN025
日本の空港のMETAR・TAFへのリンク

RJTT 東京国際空港
RJAA 新東京国際空港
RJBB 関西国際空港
RJOO 大阪空港
RJGG 中部国際空港
RJCC 新千歳空港
RJFF 福岡空港
ROAH 那覇空港


RJEC 旭川空港
RJCH 函館空港
RJCK 釧路空港
RJCM 女満別空港
RJCB 帯広空港
RJSA 青森空港
RJSS 仙台空港
RJSK 秋田空港
RJSF 福島空港
RJAH 茨城空港
RJSN 新潟空港
RJNT 富山空港
RJNK 小松飛行場
RJNS 静岡空港
RJOH 美保飛行場
RJOC 出雲空港
RJOB 岡山空港
RJOA 広島空港
RJOI 岩国飛行場
RJOT 高松空港
RJOM 松山空港
RJOK 高知空港
RJFR 北九州空港
RJFT 熊本空港
RJFU 長崎空港
RJFS 佐賀空港
RJFO 大分空港
RJFM 宮崎空港
RJFK 鹿児島空港
ROIG 石垣島空港
RJTY 横田飛行場
ROTM 普天間飛行場
RODN 嘉手納飛行場